Terminal Aerodrome Forecast
Issued by NWS Knoxville/Tri Cities, TN

Home | Current Version | Previous Version | Text Only | Print | Product List | Glossary On
Versions: 1 2 3 4 5 6 7 8 9 10 11 12 13 14 15 16 17 18 19 20 21 22 23 24 25 26 27 28
551
FTUS44 KMRX 091126
TAFTYS
TAF
KTYS 091126Z 0912/1012 26007KT 6SM -SHSN BR BKN025 OVC050
     FM091800 26012G20KT P6SM VCSH OVC040
      TEMPO 0918/0922 P6SM -SN OVC025
     FM100100 26011KT P6SM VCSH OVC025=

USA.gov is the U.S. government's official web portal to all federal, state and local government web resources and services.